Time;durP1;ratioP1;P1;durP2;ratioP2;P2;SDS_P1;SDS_P2;PMS_P1;PMS_P2;Temp;Humidity;BMP_temperature;BMP_pressure;BME280_temperature;BME280_humidity;BME280_pressure;Samples;Min_cycle;Max_cycle;Signal;HPM_P1;HPM_P2
2021/07/13 00:01:36;;;;;;;9.13;8.23;;;;;;;18.47;100.00;100871.31;5226289;28;20061;-66
2021/07/13 00:04:08;;;;;;;10.40;8.25;;;;;;;18.47;100.00;100868.66;5226339;28;20029;-67
2021/07/13 00:06:39;;;;;;;12.23;8.83;;;;;;;18.41;100.00;100872.00;5224325;28;20033;-67
2021/07/13 00:09:11;;;;;;;9.20;8.30;;;;;;;18.43;100.00;100880.63;5226207;28;20064;-66
2021/07/13 00:11:42;;;;;;;9.37;8.47;;;;;;;18.39;100.00;100893.44;5221446;28;20526;-66
2021/07/13 00:14:14;;;;;;;10.93;8.40;;;;;;;18.37;100.00;100890.16;5224360;28;20029;-66
2021/07/13 00:16:46;;;;;;;9.50;8.70;;;;;;;18.32;100.00;100879.25;5225014;28;20072;-66
2021/07/13 00:19:18;;;;;;;9.00;8.10;;;;;;;18.31;100.00;100882.91;5225836;28;20313;-66
2021/07/13 00:21:49;;;;;;;9.70;8.53;;;;;;;18.33;100.00;100880.88;5222518;28;20033;-66
2021/07/13 00:24:20;;;;;;;10.03;9.03;;;;;;;18.31;100.00;100882.09;5225166;28;20120;-66
2021/07/13 00:26:52;;;;;;;10.50;8.53;;;;;;;18.31;100.00;100893.50;5225723;28;20029;-66
2021/07/13 00:29:23;;;;;;;9.38;8.48;;;;;;;18.33;100.00;100901.28;5223912;28;20026;-66
2021/07/13 00:31:54;;;;;;;9.73;8.83;;;;;;;18.38;100.00;100899.75;5223068;28;20041;-67
2021/07/13 00:34:25;;;;;;;10.00;9.03;;;;;;;18.36;100.00;100898.28;5226266;28;20139;-66
2021/07/13 00:36:57;;;;;;;10.67;9.67;;;;;;;18.32;100.00;100896.97;5222784;28;20049;-67
2021/07/13 00:39:28;;;;;;;11.60;10.50;;;;;;;18.32;100.00;100903.09;5223862;28;20036;-66
2021/07/13 00:41:59;;;;;;;11.20;10.10;;;;;;;18.34;100.00;100898.47;5227369;28;20021;-66
2021/07/13 00:44:31;;;;;;;11.53;10.37;;;;;;;18.33;100.00;100890.66;5222944;28;20025;-66
2021/07/13 00:47:02;;;;;;;10.87;9.80;;;;;;;18.32;100.00;100883.72;5222050;28;20041;-66
2021/07/13 00:49:35;;;;;;;10.47;9.47;;;;;;;18.26;100.00;100876.47;5219881;28;20029;-67
2021/07/13 00:52:06;;;;;;;9.95;8.95;;;;;;;18.27;100.00;100878.13;5224263;28;20036;-66
2021/07/13 00:54:39;;;;;;;10.50;9.50;;;;;;;18.26;100.00;100873.81;5224363;28;20475;-67
2021/07/13 00:57:12;;;;;;;10.65;9.60;;;;;;;18.24;100.00;100868.72;5223190;28;20021;-66
2021/07/13 00:59:43;;;;;;;10.52;9.35;;;;;;;18.20;100.00;100865.59;5222458;28;20025;-66
2021/07/13 01:02:16;;;;;;;10.50;9.50;;;;;;;18.22;100.00;100871.56;5225370;28;20098;-66
2021/07/13 01:04:50;;;;;;;10.38;9.23;;;;;;;18.22;100.00;100868.91;5223724;28;20053;-66
2021/07/13 01:07:49;;;;;;;9.75;8.93;;;;;;;18.31;100.00;100868.81;5223767;28;20039;-67
2021/07/13 01:10:33;;;;;;;10.38;9.35;;;;;;;18.21;100.00;100855.81;5223732;28;20479;-67
2021/07/13 01:13:16;;;;;;;9.88;8.98;;;;;;;18.22;100.00;100860.94;5224481;28;20272;-66
2021/07/13 01:15:53;;;;;;;10.43;9.43;;;;;;;18.16;100.00;100869.59;5224121;28;20171;-66
2021/07/13 01:18:29;;;;;;;10.57;9.43;;;;;;;18.12;100.00;100873.63;5223893;28;20050;-66
2021/07/13 01:21:21;;;;;;;10.10;9.20;;;;;;;18.19;100.00;100890.47;5225115;28;20413;-66
2021/07/13 01:23:52;;;;;;;10.63;9.48;;;;;;;18.07;100.00;100875.13;5222497;28;20398;-66
2021/07/13 01:26:42;;;;;;;10.10;9.20;;;;;;;18.16;100.00;100880.22;5223846;28;20033;-66
2021/07/13 01:29:16;;;;;;;10.50;9.45;;;;;;;18.05;100.00;100874.50;5225227;28;20038;-66
2021/07/13 01:31:49;;;;;;;11.27;10.13;;;;;;;18.07;100.00;100885.75;5222024;28;20506;-66
2021/07/13 01:34:24;;;;;;;10.48;9.48;;;;;;;18.10;100.00;100883.56;5223222;28;20026;-66
2021/07/13 01:37:02;;;;;;;10.60;9.60;;;;;;;18.15;100.00;100885.69;5222753;28;20119;-67
2021/07/13 01:39:34;;;;;;;10.60;9.57;;;;;;;18.14;100.00;100874.25;5222439;28;20029;-67
2021/07/13 01:42:08;;;;;;;10.55;9.65;;;;;;;18.14;100.00;100876.91;5222580;28;20061;-67
2021/07/13 01:44:40;;;;;;;10.93;9.80;;;;;;;18.03;100.00;100874.66;5223076;28;20026;-66
2021/07/13 01:47:12;;;;;;;9.60;8.60;;;;;;;18.10;100.00;100866.84;5224244;28;20111;-66
2021/07/13 01:49:45;;;;;;;11.15;10.02;;;;;;;18.11;100.00;100869.31;5221093;28;20367;-66
2021/07/13 01:52:17;;;;;;;11.40;10.40;;;;;;;18.05;100.00;100880.63;5220475;28;20124;-66
2021/07/13 01:54:50;;;;;;;12.23;11.13;;;;;;;18.08;100.00;100882.13;5221859;28;20472;-66
2021/07/13 01:57:22;;;;;;;11.50;10.40;;;;;;;18.02;100.00;100878.34;5219753;28;20368;-66
2021/07/13 01:59:54;;;;;;;11.77;10.57;;;;;;;18.04;100.00;100878.16;5223135;28;20433;-66
2021/07/13 02:02:29;;;;;;;11.88;10.68;;;;;;;17.99;100.00;100878.69;5217669;28;20087;-66
2021/07/13 02:05:04;;;;;;;12.45;11.35;;;;;;;17.95;100.00;100874.75;5223474;28;20120;-66
2021/07/13 02:07:38;;;;;;;12.55;11.25;;;;;;;17.92;100.00;100867.97;5217513;28;20034;-66
2021/07/13 02:10:11;;;;;;;12.30;11.15;;;;;;;17.93;100.00;100859.03;5223034;28;20032;-67
2021/07/13 02:12:42;;;;;;;12.30;11.02;;;;;;;17.94;100.00;100862.50;5221018;28;20538;-66
2021/07/13 02:15:14;;;;;;;12.77;10.63;;;;;;;17.99;100.00;100858.31;5223155;28;20091;-66
2021/07/13 02:17:50;;;;;;;11.53;10.43;;;;;;;17.98;100.00;100851.34;5222611;28;20020;-66
2021/07/13 02:20:22;;;;;;;11.77;10.70;;;;;;;17.91;100.00;100854.91;5220660;28;20029;-67
2021/07/13 02:22:53;;;;;;;12.27;11.13;;;;;;;17.91;100.00;100855.72;5222387;28;20261;-66
2021/07/13 02:25:25;;;;;;;12.37;11.17;;;;;;;17.89;100.00;100851.63;5220725;28;20279;-66
2021/07/13 02:28:18;;;;;;;12.30;11.00;;;;;;;18.00;100.00;100856.50;5225156;28;20037;-67
2021/07/13 02:30:54;;;;;;;11.80;10.70;;;;;;;17.94;100.00;100863.31;5222536;28;20083;-66
2021/07/13 02:33:31;;;;;;;12.20;11.00;;;;;;;17.92;100.00;100865.34;5222399;28;20527;-67
2021/07/13 02:36:10;;;;;;;12.20;11.10;;;;;;;17.97;100.00;100862.16;5220763;28;20418;-66
2021/07/13 02:38:44;;;;;;;12.38;11.27;;;;;;;17.91;100.00;100873.44;5222579;28;20029;-67
2021/07/13 02:41:18;;;;;;;11.98;10.88;;;;;;;17.90;100.00;100869.16;5222494;28;20053;-66
2021/07/13 02:43:52;;;;;;;12.57;11.48;;;;;;;17.89;100.00;100860.38;5222356;28;20407;-66
2021/07/13 02:46:28;;;;;;;13.43;11.02;;;;;;;17.96;100.00;100858.69;5221493;28;20088;-66
2021/07/13 02:49:00;;;;;;;13.00;11.77;;;;;;;17.93;100.00;100863.50;5222007;28;20021;-66
2021/07/13 02:51:32;;;;;;;12.75;11.65;;;;;;;17.95;100.00;100858.84;5224093;28;20548;-67
2021/07/13 02:54:07;;;;;;;13.55;12.32;;;;;;;17.94;100.00;100850.06;5225805;28;20026;-66
2021/07/13 02:56:40;;;;;;;13.18;11.93;;;;;;;17.92;100.00;100845.97;5225286;28;20414;-66
2021/07/13 02:59:12;;;;;;;12.80;11.63;;;;;;;17.94;100.00;100843.94;5225179;28;20071;-67
2021/07/13 03:01:44;;;;;;;12.13;11.02;;;;;;;17.94;100.00;100843.94;5223997;28;20021;-67
2021/07/13 03:04:17;;;;;;;13.13;11.93;;;;;;;17.94;100.00;100838.63;5227013;28;20037;-66
2021/07/13 03:06:49;;;;;;;12.90;11.68;;;;;;;18.03;100.00;100840.22;5225268;28;20064;-66
2021/07/13 03:09:21;;;;;;;12.13;10.93;;;;;;;17.98;100.00;100843.41;5227359;28;20033;-66
2021/07/13 03:11:53;;;;;;;13.33;12.10;;;;;;;17.96;100.00;100839.31;5226202;28;20060;-66
2021/07/13 03:14:26;;;;;;;13.00;11.80;;;;;;;17.99;100.00;100830.97;5224173;28;20120;-67
2021/07/13 03:16:59;;;;;;;12.70;11.50;;;;;;;17.98;100.00;100831.97;5224492;28;20080;-67
2021/07/13 03:19:30;;;;;;;13.40;12.23;;;;;;;17.95;100.00;100830.50;5225211;28;20414;-67
2021/07/13 03:22:04;;;;;;;12.18;11.02;;;;;;;17.92;100.00;100820.28;5225708;28;20021;-66
2021/07/13 03:24:38;;;;;;;12.23;11.02;;;;;;;17.94;100.00;100825.38;5224370;28;20104;-66
2021/07/13 03:27:10;;;;;;;12.82;11.43;;;;;;;17.94;100.00;100825.38;5225704;28;20029;-66
2021/07/13 03:29:43;;;;;;;12.97;11.67;;;;;;;17.90;100.00;100829.41;5226485;28;20533;-66
2021/07/13 03:32:16;;;;;;;12.80;11.50;;;;;;;17.88;100.00;100832.25;5223604;28;20049;-66
2021/07/13 03:34:48;;;;;;;;;;;;;;;18.16;100.00;100831.66;5224867;28;20029;-66
2021/07/13 03:37:20;;;;;;;12.02;10.93;;;;;;;17.85;100.00;100835.25;5225228;28;19921;-66
2021/07/13 03:39:52;;;;;;;12.80;11.60;;;;;;;17.86;100.00;100831.59;5224932;28;20033;-66
2021/07/13 03:42:23;;;;;;;12.35;11.18;;;;;;;17.89;100.00;100825.94;5224980;28;20423;-67
2021/07/13 03:44:55;;;;;;;12.77;11.20;;;;;;;17.83;100.00;100826.63;5223156;28;20025;-67
2021/07/13 03:47:26;;;;;;;13.35;12.05;;;;;;;17.78;100.00;100822.88;5223582;28;20037;-66
2021/07/13 03:49:58;;;;;;;12.93;11.70;;;;;;;17.89;100.00;100819.81;5224990;28;20044;-66
2021/07/13 03:52:30;;;;;;;12.90;11.60;;;;;;;17.81;100.00;100833.94;5225026;28;20087;-67
2021/07/13 03:55:01;;;;;;;12.65;11.48;;;;;;;17.81;100.00;100833.13;5226323;28;20263;-67
2021/07/13 03:57:33;;;;;;;12.73;11.13;;;;;;;17.74;100.00;100838.28;5223614;28;20017;-66
2021/07/13 04:00:12;;;;;;;14.00;12.55;;;;;;;17.79;100.00;100835.13;5227216;28;20029;-66
2021/07/13 04:02:44;;;;;;;13.18;11.93;;;;;;;17.74;100.00;100836.44;5219141;28;20028;-66
2021/07/13 04:05:16;;;;;;;14.30;13.00;;;;;;;17.74;100.00;100835.63;5225133;28;20033;-66
2021/07/13 04:07:47;;;;;;;14.67;13.37;;;;;;;17.72;100.00;100843.72;5223227;28;20021;-66
2021/07/13 04:10:18;;;;;;;14.73;13.33;;;;;;;17.71;100.00;100838.63;5221541;28;20034;-66
2021/07/13 04:12:50;;;;;;;15.13;13.73;;;;;;;17.77;100.00;100845.06;5222991;28;20038;-66
2021/07/13 04:15:21;;;;;;;15.40;13.90;;;;;;;17.75;100.00;100840.75;5223971;28;20120;-66
2021/07/13 04:17:53;;;;;;;15.88;14.30;;;;;;;17.80;100.00;100850.00;5226549;28;20401;-66
2021/07/13 04:20:24;;;;;;;15.75;14.25;;;;;;;17.81;100.00;100841.06;5222106;28;20036;-66
2021/07/13 04:22:55;;;;;;;15.03;13.47;;;;;;;17.80;100.00;100847.34;5227629;28;20112;-67
2021/07/13 04:25:26;;;;;;;16.45;14.95;;;;;;;17.78;100.00;100841.44;5226783;28;20159;-66
2021/07/13 04:27:58;;;;;;;15.70;14.13;;;;;;;17.83;100.00;100841.72;5223955;28;20028;-66
2021/07/13 04:30:29;;;;;;;17.10;15.60;;;;;;;17.75;100.00;100842.59;5224792;28;20087;-66
2021/07/13 04:33:00;;;;;;;16.43;14.87;;;;;;;17.72;100.00;100841.09;5224450;28;20024;-66
2021/07/13 04:35:32;;;;;;;17.90;16.07;;;;;;;17.72;100.00;100846.38;5223720;28;20063;-66
2021/07/13 04:38:03;;;;;;;17.20;15.43;;;;;;;17.74;100.00;100849.69;5224128;28;20029;-67
2021/07/13 04:40:35;;;;;;;17.87;15.87;;;;;;;17.75;100.00;100847.91;5224743;28;20056;-66
2021/07/13 04:43:06;;;;;;;17.10;15.30;;;;;;;17.78;100.00;100855.50;5223880;28;20045;-66
2021/07/13 04:45:37;;;;;;;17.07;14.97;;;;;;;17.77;100.00;100853.00;5223999;28;20049;-66
2021/07/13 04:48:08;;;;;;;16.73;15.07;;;;;;;17.78;100.00;100852.84;5226926;28;20018;-66
2021/07/13 04:50:40;;;;;;;19.43;15.47;;;;;;;17.77;100.00;100847.72;5224401;28;20485;-66
2021/07/13 04:53:11;;;;;;;16.00;14.32;;;;;;;17.85;100.00;100859.09;5219115;28;20026;-66
2021/07/13 04:55:42;;;;;;;16.83;15.13;;;;;;;17.77;100.00;100853.84;5224134;28;20038;-66
2021/07/13 04:58:13;;;;;;;18.52;15.13;;;;;;;17.83;100.00;100855.78;5224879;28;20108;-66
2021/07/13 05:00:45;;;;;;;14.97;13.57;;;;;;;17.79;100.00;100851.00;5221913;28;20483;-66
2021/07/13 05:03:16;;;;;;;16.80;15.20;;;;;;;17.82;100.00;100855.97;5221940;28;20504;-66
2021/07/13 05:05:47;;;;;;;16.77;15.10;;;;;;;17.80;100.00;100856.13;5223080;28;20021;-67
2021/07/13 05:08:21;;;;;;;18.20;15.45;;;;;;;17.82;100.00;100861.28;5223770;28;20399;-66
2021/07/13 05:10:53;;;;;;;17.63;15.85;;;;;;;17.78;100.00;100854.69;5225368;28;20064;-66
2021/07/13 05:13:24;;;;;;;17.27;15.50;;;;;;;17.84;100.00;100861.91;5223853;28;20014;-66
2021/07/13 05:15:55;;;;;;;16.73;15.07;;;;;;;17.84;100.00;100864.56;5220697;28;20553;-66
2021/07/13 05:18:27;;;;;;;16.98;15.20;;;;;;;17.82;100.00;100867.41;5224165;28;20034;-66
2021/07/13 05:21:01;;;;;;;16.40;14.77;;;;;;;17.79;100.00;100866.91;5222644;28;20091;-66
2021/07/13 05:23:33;;;;;;;16.58;15.00;;;;;;;17.85;100.00;100861.75;5223680;28;20037;-67
2021/07/13 05:26:05;;;;;;;17.05;14.98;;;;;;;17.88;100.00;100860.53;5225489;28;20116;-66
2021/07/13 05:28:36;;;;;;;17.83;16.00;;;;;;;17.92;100.00;100862.69;5222798;28;20136;-66
2021/07/13 05:31:07;;;;;;;17.23;15.63;;;;;;;17.90;100.00;100858.56;5222537;28;20022;-67
2021/07/13 05:33:39;;;;;;;17.23;15.53;;;;;;;17.92;100.00;100864.50;5221224;28;20291;-67
2021/07/13 05:36:10;;;;;;;16.90;15.30;;;;;;;17.98;100.00;100855.84;5224099;28;20134;-66
2021/07/13 05:38:41;;;;;;;17.90;16.23;;;;;;;17.98;100.00;100850.53;5221313;28;20108;-67
2021/07/13 05:41:13;;;;;;;16.87;15.37;;;;;;;18.01;100.00;100849.34;5224414;28;20029;-66
2021/07/13 05:43:44;;;;;;;17.47;15.83;;;;;;;18.03;100.00;100860.59;5221573;28;20036;-66
2021/07/13 05:46:15;;;;;;;19.08;17.20;;;;;;;18.06;100.00;100860.25;5220506;28;20346;-66
2021/07/13 05:48:47;;;;;;;18.77;17.03;;;;;;;18.03;100.00;100858.75;5223759;28;20051;-66
2021/07/13 05:51:19;;;;;;;19.07;17.27;;;;;;;18.09;100.00;100867.84;5222375;28;20033;-67
2021/07/13 05:53:50;;;;;;;19.03;17.13;;;;;;;18.13;100.00;100862.00;5222807;28;20033;-66
2021/07/13 05:56:21;;;;;;;18.40;16.63;;;;;;;18.15;100.00;100862.66;5220056;28;20264;-66
2021/07/13 05:58:53;;;;;;;19.03;17.33;;;;;;;18.17;100.00;100870.44;5223022;28;20545;-66
2021/07/13 06:01:24;;;;;;;19.67;17.87;;;;;;;18.21;100.00;100869.88;5224962;28;20438;-66
2021/07/13 06:03:55;;;;;;;19.67;17.73;;;;;;;18.24;100.00;100880.13;5221143;28;20447;-67
2021/07/13 06:06:27;;;;;;;18.80;17.00;;;;;;;18.29;100.00;100871.63;5221345;28;20045;-66
2021/07/13 06:08:59;;;;;;;19.85;17.90;;;;;;;18.31;100.00;100876.78;5224334;28;20127;-66
2021/07/13 06:11:30;;;;;;;22.17;19.30;;;;;;;18.36;100.00;100875.22;5221340;28;20502;-66
2021/07/13 06:14:02;;;;;;;21.00;18.60;;;;;;;18.37;100.00;100881.34;5222250;28;20028;-66
2021/07/13 06:16:33;;;;;;;20.93;18.93;;;;;;;18.30;100.00;100867.19;5216717;28;20037;-66
2021/07/13 06:19:04;;;;;;;21.33;19.13;;;;;;;18.38;100.00;100880.38;5220692;28;20111;-67
2021/07/13 06:21:35;;;;;;;21.40;19.50;;;;;;;18.34;100.00;100879.06;5220422;28;20048;-67
2021/07/13 06:24:07;;;;;;;20.35;18.42;;;;;;;18.39;100.00;100876.69;5221061;28;20390;-67
2021/07/13 06:26:38;;;;;;;21.20;19.00;;;;;;;18.45;100.00;100873.34;5221514;28;20434;-66
2021/07/13 06:29:10;;;;;;;21.37;19.27;;;;;;;18.49;100.00;100879.91;5221999;28;20025;-66
2021/07/13 06:31:41;;;;;;;21.67;19.57;;;;;;;18.49;100.00;100885.22;5221700;28;20033;-65
2021/07/13 06:34:12;;;;;;;23.37;21.07;;;;;;;18.49;100.00;100879.91;5222753;28;20036;-66
2021/07/13 06:36:43;;;;;;;22.90;20.67;;;;;;;18.52;100.00;100884.03;5220219;28;20048;-66
2021/07/13 06:39:15;;;;;;;22.87;20.67;;;;;;;18.51;100.00;100882.38;5223393;28;20029;-66
2021/07/13 06:41:46;;;;;;;23.47;21.27;;;;;;;18.58;100.00;100883.31;5221692;28;20090;-66
2021/07/13 06:44:17;;;;;;;23.93;21.53;;;;;;;18.60;100.00;100884.78;5207562;28;20049;-66
2021/07/13 06:46:49;;;;;;;24.37;22.07;;;;;;;18.57;100.00;100885.16;5215693;28;20045;-66
2021/07/13 06:49:20;;;;;;;23.03;20.93;;;;;;;18.71;100.00;100887.03;5214841;28;20132;-67
2021/07/13 06:51:51;;;;;;;24.97;22.50;;;;;;;18.64;100.00;100886.06;5219838;28;20402;-66
2021/07/13 06:54:23;;;;;;;24.67;22.27;;;;;;;18.77;100.00;100888.09;5219158;28;20036;-66
2021/07/13 06:56:54;;;;;;;26.60;23.90;;;;;;;18.85;100.00;100895.97;5221658;28;20033;-66
2021/07/13 06:59:25;;;;;;;24.90;22.37;;;;;;;18.88;100.00;100894.78;5221644;28;20064;-66
2021/07/13 07:01:56;;;;;;;27.57;24.97;;;;;;;18.93;100.00;100892.41;5219939;28;20029;-66
2021/07/13 07:04:28;;;;;;;29.67;26.43;;;;;;;18.94;100.00;100894.03;5219811;28;20032;-66
2021/07/13 07:06:59;;;;;;;28.07;25.13;;;;;;;19.00;100.00;100898.63;5220813;28;20068;-65
2021/07/13 07:09:30;;;;;;;29.17;26.07;;;;;;;19.12;100.00;100899.81;5217883;28;20092;-66
2021/07/13 07:12:02;;;;;;;29.63;26.80;;;;;;;19.04;100.00;100905.22;5220434;28;20124;-66
2021/07/13 07:14:33;;;;;;;28.17;25.27;;;;;;;19.11;100.00;100903.47;5217236;28;20177;-66
2021/07/13 07:17:05;;;;;;;30.13;27.23;;;;;;;19.16;100.00;100906.41;5217401;28;20022;-66
2021/07/13 07:19:36;;;;;;;29.30;26.47;;;;;;;19.23;100.00;100897.69;5219346;28;20037;-66
2021/07/13 07:22:07;;;;;;;31.83;28.53;;;;;;;19.31;100.00;100902.91;5219162;28;20418;-65
2021/07/13 07:24:38;;;;;;;32.67;29.37;;;;;;;19.34;100.00;100897.22;5221065;28;20438;-66
2021/07/13 07:27:10;;;;;;;35.90;32.13;;;;;;;19.39;100.00;100905.44;5219532;28;20056;-66
2021/07/13 07:29:41;;;;;;;36.03;32.40;;;;;;;19.40;100.00;100899.16;5218075;28;20113;-66
2021/07/13 07:32:12;;;;;;;37.10;33.50;;;;;;;19.42;100.00;100905.91;5218805;28;20173;-66
2021/07/13 07:34:43;;;;;;;39.37;34.93;;;;;;;19.42;100.00;100907.75;5220741;28;20033;-66
2021/07/13 07:37:15;;;;;;;38.90;34.90;;;;;;;19.53;100.00;100915.22;5222650;28;20049;-66
2021/07/13 07:39:46;;;;;;;39.23;35.33;;;;;;;19.59;100.00;100914.50;5222134;28;20042;-66
2021/07/13 07:42:17;;;;;;;40.03;36.00;;;;;;;19.65;100.00;100913.75;5222902;28;20049;-66
2021/07/13 07:44:49;;;;;;;38.93;35.03;;;;;;;19.66;100.00;100915.41;5221066;28;20076;-66
2021/07/13 07:47:20;;;;;;;40.17;36.30;;;;;;;19.66;100.00;100919.88;5222134;28;20041;-66
2021/07/13 07:49:51;;;;;;;38.40;34.63;;;;;;;19.64;100.00;100913.94;5225081;28;20108;-67
2021/07/13 07:52:23;;;;;;;40.27;36.37;;;;;;;19.62;100.00;100918.63;5224706;28;20467;-66
2021/07/13 07:54:54;;;;;;;41.33;37.27;;;;;;;19.66;100.00;100918.06;5222933;28;20034;-66
2021/07/13 07:57:26;;;;;;;41.63;37.50;;;;;;;19.65;100.00;100912.94;5224409;28;20605;-67
2021/07/13 07:59:57;;;;;;;41.43;37.17;;;;;;;19.67;100.00;100919.72;5223114;28;20399;-66
2021/07/13 08:02:29;;;;;;;40.97;36.97;;;;;;;19.68;100.00;100912.56;5222885;28;20076;-66
2021/07/13 08:05:00;;;;;;;42.47;37.87;;;;;;;19.78;100.00;100910.44;5223835;28;20463;-66
2021/07/13 08:07:31;;;;;;;43.27;38.87;;;;;;;19.78;100.00;100914.94;5221016;28;20507;-66
2021/07/13 08:10:05;;;;;;;43.30;38.90;;;;;;;19.83;100.00;100907.19;5221109;28;20022;-66
2021/07/13 08:12:37;;;;;;;43.35;39.15;;;;;;;19.81;100.00;100909.22;5220585;28;20379;-66
2021/07/13 08:15:10;;;;;;;43.37;39.10;;;;;;;19.89;100.00;100911.78;5216537;28;20164;-66
2021/07/13 08:17:42;;;;;;;45.40;40.83;;;;;;;19.83;100.00;100918.66;5221127;28;20569;-66
2021/07/13 08:20:13;;;;;;;45.93;41.47;;;;;;;19.96;100.00;100912.63;5216332;28;20124;-66
2021/07/13 08:22:47;;;;;;;46.17;41.53;;;;;;;19.93;100.00;100913.03;5223883;28;20018;-66
2021/07/13 08:25:19;;;;;;;46.13;41.55;;;;;;;19.89;100.00;100919.75;5221961;28;20021;-66
2021/07/13 08:27:51;;;;;;;47.53;42.60;;;;;;;19.96;100.00;100906.50;5219105;28;20136;-66
2021/07/13 08:30:22;;;;;;;46.63;42.10;;;;;;;19.96;100.00;100914.47;5221183;28;20038;-66
2021/07/13 08:32:55;;;;;;;46.00;41.70;;;;;;;19.89;100.00;100911.78;5223540;28;20081;-66
2021/07/13 08:35:26;;;;;;;;;;;;;;;20.17;100.00;100909.97;5222714;28;20088;-67
2021/07/13 08:37:57;;;;;;;43.13;39.20;;;;;;;19.97;100.00;100905.50;5216451;28;19917;-69
2021/07/13 08:40:30;;;;;;;45.77;41.33;;;;;;;19.97;100.00;100910.81;5219975;28;20298;-67
2021/07/13 08:43:01;;;;;;;45.15;40.95;;;;;;;19.95;100.00;100912.84;5217968;28;20030;-67
2021/07/13 08:45:33;;;;;;;45.40;41.10;;;;;;;20.03;100.00;100902.88;5220577;28;20109;-68
2021/07/13 08:48:04;;;;;;;47.90;43.33;;;;;;;20.01;100.00;100904.09;5218930;28;20029;-67
2021/07/13 08:50:36;;;;;;;46.13;41.63;;;;;;;19.99;100.00;100903.47;5221137;28;20021;-67
2021/07/13 08:53:07;;;;;;;48.60;44.03;;;;;;;20.07;100.00;100896.16;5221156;28;20018;-67
2021/07/13 08:55:38;;;;;;;48.77;43.87;;;;;;;20.06;100.00;100899.84;5222566;28;20037;-67
2021/07/13 08:58:15;;;;;;;48.07;43.23;;;;;;;20.17;100.00;100899.34;5222974;28;20037;-67
2021/07/13 09:00:46;;;;;;;49.38;44.58;;;;;;;20.08;100.00;100907.66;5220125;28;20481;-67
2021/07/13 09:03:21;;;;;;;50.20;45.30;;;;;;;20.15;100.00;100912.03;5221256;28;20091;-67
2021/07/13 09:05:53;;;;;;;47.53;43.00;;;;;;;20.19;100.00;100915.09;5221740;28;20517;-67
2021/07/13 09:08:27;;;;;;;50.60;45.40;;;;;;;20.18;100.00;100918.78;5220787;28;20029;-67
2021/07/13 09:11:18;;;;;;;47.97;43.28;;;;;;;20.29;100.00;100912.13;5221661;28;20029;-67
2021/07/13 09:13:50;;;;;;;49.15;44.22;;;;;;;20.35;100.00;100919.34;5220201;28;20109;-67
2021/07/13 09:16:26;;;;;;;49.22;44.42;;;;;;;20.34;100.00;100915.00;5221473;28;20026;-67
2021/07/13 09:18:59;;;;;;;47.72;42.95;;;;;;;20.40;100.00;100923.06;5222064;28;20028;-67
2021/07/13 09:21:35;;;;;;;47.60;42.92;;;;;;;20.37;100.00;100917.28;5217446;28;20029;-67
2021/07/13 09:24:14;;;;;;;47.05;42.67;;;;;;;20.48;100.00;100929.25;5221231;28;20033;-67
2021/07/13 09:26:58;;;;;;;49.08;44.38;;;;;;;20.55;100.00;100922.19;5222028;28;20025;-67
2021/07/13 09:29:40;;;;;;;47.50;42.97;;;;;;;20.64;100.00;100918.34;5218387;28;20084;-67
2021/07/13 09:32:29;;;;;;;50.22;45.38;;;;;;;20.69;100.00;100913.28;5220657;28;20252;-67
2021/07/13 09:35:03;;;;;;;46.97;42.50;;;;;;;20.58;100.00;100913.81;5220107;28;20037;-68
2021/07/13 09:37:43;;;;;;;46.13;41.67;;;;;;;20.69;100.00;100921.25;5216174;28;20053;-68
2021/07/13 09:40:17;;;;;;;47.20;42.58;;;;;;;20.72;100.00;100922.69;5222328;28;20033;-67
2021/07/13 09:42:51;;;;;;;46.40;41.88;;;;;;;20.70;100.00;100920.25;5226534;28;20013;-67
2021/07/13 09:45:27;;;;;;;45.03;40.40;;;;;;;20.70;100.00;100919.41;5223559;28;20033;-67
2021/07/13 09:48:12;;;;;;;44.53;40.33;;;;;;;20.82;100.00;100913.34;5215251;28;20167;-67
2021/07/13 09:50:46;;;;;;;42.53;38.55;;;;;;;20.76;100.00;100905.31;5231178;28;20021;-67
2021/07/13 09:53:22;;;;;;;43.40;39.17;;;;;;;20.79;100.00;100910.25;5213303;28;20025;-67
2021/07/13 09:55:55;;;;;;;44.80;40.35;;;;;;;20.90;100.00;100910.53;5221869;28;20029;-67
2021/07/13 09:58:27;;;;;;;44.03;39.08;;;;;;;20.97;100.00;100913.22;5225464;28;20033;-67
2021/07/13 10:00:58;;;;;;;44.63;40.27;;;;;;;20.98;100.00;100911.38;5221677;28;20034;-67
2021/07/13 10:03:30;;;;;;;42.33;38.23;;;;;;;20.98;100.00;100909.53;5216822;28;20144;-67
2021/07/13 10:06:02;;;;;;;42.93;38.93;;;;;;;21.12;100.00;100915.75;5224856;28;21133;-67
2021/07/13 10:08:36;;;;;;;43.65;39.30;;;;;;;21.07;100.00;100913.69;5218482;28;20483;-67
2021/07/13 10:11:08;;;;;;;42.50;38.35;;;;;;;21.08;100.00;100920.66;5219592;28;20033;-70
2021/07/13 10:13:41;;;;;;;43.27;38.80;;;;;;;21.02;100.00;100918.78;5222697;28;20095;-68
2021/07/13 10:16:13;;;;;;;45.92;41.47;;;;;;;20.99;100.00;100918.38;5221745;28;20582;-68
2021/07/13 10:18:44;;;;;;;44.93;40.47;;;;;;;20.99;100.00;100921.03;5221729;28;20116;-67
2021/07/13 10:21:17;;;;;;;44.20;39.60;;;;;;;21.13;100.00;100917.41;5220610;28;20041;-67
2021/07/13 10:23:48;;;;;;;44.15;39.78;;;;;;;21.09;100.00;100916.97;5219815;28;20037;-66
2021/07/13 10:26:43;;;;;;;38.57;34.80;;;;;;;21.16;100.00;100909.03;5219171;28;20057;-66
2021/07/13 10:29:32;;;;;;;39.25;35.25;;;;;;;21.19;100.00;100907.81;5216535;28;20017;-66
2021/07/13 10:32:09;;;;;;;40.83;36.47;;;;;;;21.12;100.00;100907.78;5218816;28;20486;-67
2021/07/13 10:35:04;;;;;;;41.90;37.50;;;;;;;21.26;100.00;100906.81;5219615;28;20048;-66
2021/07/13 10:37:41;;;;;;;43.22;38.83;;;;;;;21.23;100.00;100906.38;5218575;28;20041;-66
2021/07/13 10:40:39;;;;;;;42.17;37.92;;;;;;;21.31;100.00;100920.34;5217173;28;20037;-67
2021/07/13 10:43:27;;;;;;;40.15;35.97;;;;;;;21.33;100.00;100922.88;5209588;28;20041;-67
2021/07/13 10:46:10;;;;;;;37.92;34.08;;;;;;;21.31;100.00;100930.19;5220144;28;20054;-67
2021/07/13 10:48:42;;;;;;;39.50;35.50;;;;;;;21.27;100.00;100926.28;5222486;28;20042;-69
2021/07/13 10:51:13;;;;;;;37.83;33.93;;;;;;;21.29;100.00;100932.22;5221299;28;20022;-69
2021/07/13 10:53:46;;;;;;;37.17;33.37;;;;;;;21.35;100.00;100923.47;5212705;28;20029;-71
2021/07/13 10:56:29;;;;;;;39.47;35.45;;;;;;;21.33;100.00;100941.53;5212491;28;20439;-70
2021/07/13 10:59:20;;;;;;;35.28;31.60;;;;;;;21.46;100.00;100935.41;5214861;28;20364;-68
2021/07/13 11:02:08;;;;;;;34.30;30.80;;;;;;;21.46;100.00;100932.75;5221227;28;20054;-70
2021/07/13 11:04:40;;;;;;;33.40;30.00;;;;;;;21.33;98.43;100936.19;5216368;28;20033;-70
2021/07/13 11:07:12;;;;;;;33.67;30.30;;;;;;;21.30;98.93;100950.69;5218873;28;20036;-70
2021/07/13 11:09:43;;;;;;;33.33;29.92;;;;;;;21.23;98.97;100954.34;5220220;28;20109;-67
2021/07/13 11:12:16;;;;;;;32.27;29.00;;;;;;;21.18;98.49;100954.94;5220298;28;20121;-67
2021/07/13 11:14:58;;;;;;;32.60;29.20;;;;;;;21.27;99.29;100952.94;5223447;28;20040;-68
2021/07/13 11:17:31;;;;;;;33.30;29.90;;;;;;;21.18;98.39;100951.47;5225334;28;20413;-68
2021/07/13 11:20:06;;;;;;;33.17;29.88;;;;;;;21.06;99.69;100945.84;5221307;28;20036;-68
2021/07/13 11:22:41;;;;;;;35.15;29.90;;;;;;;21.09;100.00;100956.09;5225047;28;20503;-67
2021/07/13 11:25:21;;;;;;;32.72;29.33;;;;;;;21.13;100.00;100954.69;5222077;28;20029;-67
2021/07/13 11:28:00;;;;;;;35.58;31.80;;;;;;;21.10;100.00;100950.59;5225103;28;20088;-68
2021/07/13 11:30:32;;;;;;;35.92;32.08;;;;;;;21.01;100.00;100941.09;5223999;28;20026;-67
2021/07/13 11:33:04;;;;;;;36.37;32.60;;;;;;;20.96;100.00;100946.22;5225246;28;20028;-68